createdAt,value
2023-03-27T00:00:03.920Z,0.00
2023-03-27T00:01:03.851Z,0.00
2023-03-27T00:02:03.926Z,0.00
2023-03-27T00:03:03.899Z,0.00
2023-03-27T00:04:03.887Z,0.00
2023-03-27T00:05:03.827Z,0.00
2023-03-27T00:06:03.831Z,0.00
2023-03-27T00:07:03.987Z,0.00
2023-03-27T00:08:03.777Z,0.00
2023-03-27T00:09:03.776Z,0.00
2023-03-27T00:10:03.806Z,0.00
2023-03-27T00:11:03.722Z,0.00
2023-03-27T00:12:03.751Z,0.00
2023-03-27T00:13:03.701Z,0.00
2023-03-27T00:14:03.723Z,0.00
2023-03-27T00:15:03.677Z,0.00
2023-03-27T00:16:03.672Z,0.00
2023-03-27T00:17:03.650Z,0.00
2023-03-27T00:18:03.752Z,0.00
2023-03-27T00:19:03.618Z,0.00
2023-03-27T00:20:03.631Z,0.00
2023-03-27T00:21:03.608Z,0.00
2023-03-27T00:22:03.604Z,0.00
2023-03-27T00:23:03.597Z,0.00
2023-03-27T00:24:03.584Z,0.00
2023-03-27T00:25:03.550Z,0.00
2023-03-27T00:26:03.548Z,0.00
2023-03-27T00:27:03.534Z,0.00
2023-03-27T00:28:03.529Z,0.00
2023-03-27T00:29:03.486Z,0.00
2023-03-27T00:30:03.521Z,0.00
2023-03-27T00:31:03.503Z,0.00
2023-03-27T00:32:03.482Z,0.00
2023-03-27T00:33:03.513Z,0.00
2023-03-27T00:34:03.481Z,0.00
2023-03-27T00:35:03.468Z,0.00
2023-03-27T00:36:03.507Z,0.00
2023-03-27T00:37:03.392Z,0.00
2023-03-27T00:38:03.392Z,0.00
2023-03-27T00:39:03.354Z,0.00
2023-03-27T00:40:03.390Z,0.00
2023-03-27T00:41:03.407Z,0.00
2023-03-27T00:42:03.353Z,0.00
2023-03-27T00:43:03.314Z,0.00
2023-03-27T00:44:03.333Z,0.00
2023-03-27T00:45:03.299Z,0.00
2023-03-27T00:46:03.370Z,0.00
2023-03-27T00:47:03.299Z,0.00
2023-03-27T00:48:03.367Z,0.00
2023-03-27T00:49:03.258Z,0.00
2023-03-27T00:50:03.242Z,0.00
2023-03-27T00:51:03.231Z,0.00
2023-03-27T00:52:03.222Z,0.00
2023-03-27T00:53:03.186Z,0.00
2023-03-27T00:54:03.188Z,0.00
2023-03-27T00:55:03.182Z,0.00
2023-03-27T00:56:03.174Z,0.00
2023-03-27T00:57:03.197Z,0.00
2023-03-27T00:58:03.154Z,0.00
2023-03-27T00:59:03.159Z,0.00
2023-03-27T01:00:03.116Z,0.00
2023-03-27T01:01:03.182Z,0.00
2023-03-27T01:02:03.107Z,0.00
2023-03-27T01:03:03.146Z,0.00
2023-03-27T01:04:03.046Z,0.00
2023-03-27T01:05:03.062Z,0.00
2023-03-27T01:06:03.047Z,0.00
2023-03-27T01:07:03.016Z,0.00
2023-03-27T01:08:02.994Z,0.00
2023-03-27T01:09:02.990Z,0.00
2023-03-27T01:10:02.949Z,0.00
2023-03-27T01:11:02.990Z,0.00
2023-03-27T01:12:02.960Z,0.00
2023-03-27T01:13:02.925Z,0.00
2023-03-27T01:14:02.947Z,0.00
2023-03-27T01:15:02.903Z,0.00
2023-03-27T01:16:02.958Z,0.00
2023-03-27T01:17:02.862Z,0.00
2023-03-27T01:18:02.926Z,0.00
2023-03-27T01:19:02.832Z,0.00
2023-03-27T01:20:02.879Z,0.00
2023-03-27T01:21:02.807Z,0.00
2023-03-27T01:22:02.813Z,0.00
2023-03-27T01:23:02.826Z,0.00
2023-03-27T01:24:02.813Z,0.00
2023-03-27T01:25:02.760Z,0.00
2023-03-27T01:26:02.775Z,0.00
2023-03-27T01:27:02.730Z,0.00
2023-03-27T01:28:02.941Z,0.00
2023-03-27T01:29:02.732Z,0.00
2023-03-27T01:30:02.717Z,0.00
2023-03-27T01:31:02.714Z,0.00
2023-03-27T01:32:02.693Z,0.00
2023-03-27T01:33:02.734Z,0.00
2023-03-27T01:34:02.657Z,0.00
2023-03-27T01:35:03.475Z,0.00
2023-03-27T01:36:02.674Z,0.00
2023-03-27T01:37:02.600Z,0.00
2023-03-27T01:38:02.632Z,0.00
2023-03-27T01:39:02.578Z,0.00
2023-03-27T01:40:02.592Z,0.00
2023-03-27T01:41:02.547Z,0.00
2023-03-27T01:42:02.562Z,0.00
2023-03-27T01:43:02.570Z,0.00
2023-03-27T01:44:02.529Z,0.00
2023-03-27T01:45:02.523Z,0.00
2023-03-27T01:46:02.548Z,0.00
2023-03-27T01:47:02.513Z,0.00
2023-03-27T01:48:02.575Z,0.00
2023-03-27T01:49:02.450Z,0.00
2023-03-27T01:50:02.513Z,0.00
2023-03-27T01:51:02.418Z,0.00
2023-03-27T01:52:02.457Z,0.00
2023-03-27T01:53:02.415Z,0.00
2023-03-27T01:54:02.405Z,0.00
2023-03-27T01:55:02.369Z,0.00
2023-03-27T01:56:02.417Z,0.00
2023-03-27T01:57:02.582Z,0.00
2023-03-27T01:58:02.370Z,0.00
2023-03-27T01:59:02.331Z,0.00
2023-03-27T02:00:17.416Z,0.00
2023-03-27T02:01:02.318Z,0.00
2023-03-27T02:02:02.327Z,0.00
2023-03-27T02:03:02.303Z,0.00
2023-03-27T02:04:02.293Z,0.00
2023-03-27T02:05:02.327Z,0.00
2023-03-27T02:06:02.263Z,0.00
2023-03-27T02:07:02.215Z,0.00
2023-03-27T02:08:02.223Z,0.00
2023-03-27T02:09:02.199Z,0.00
2023-03-27T02:10:02.214Z,0.00
2023-03-27T02:11:02.176Z,0.00
2023-03-27T02:12:02.174Z,0.00
2023-03-27T02:13:02.131Z,0.00
2023-03-27T02:14:02.140Z,0.00
2023-03-27T02:15:23.161Z,0.00
2023-03-27T02:16:02.224Z,0.00
2023-03-27T02:17:02.092Z,0.00
2023-03-27T02:18:02.126Z,0.00
2023-03-27T02:19:02.069Z,0.00
2023-03-27T02:20:02.068Z,0.00
2023-03-27T02:21:02.089Z,0.00
2023-03-27T02:22:02.040Z,0.00
2023-03-27T02:23:02.008Z,0.00
2023-03-27T02:24:02.081Z,0.00
2023-03-27T02:25:01.983Z,0.00
2023-03-27T02:26:02.003Z,0.00
2023-03-27T02:27:01.989Z,0.00
2023-03-27T02:28:02.018Z,0.00
2023-03-27T02:29:01.946Z,0.00
2023-03-27T02:30:01.938Z,0.00
2023-03-27T02:31:06.157Z,0.00
2023-03-27T02:32:01.961Z,0.00
2023-03-27T02:33:01.939Z,0.00
2023-03-27T02:34:01.903Z,0.00
2023-03-27T02:35:01.886Z,0.00
2023-03-27T02:36:01.937Z,0.00
2023-03-27T02:37:01.837Z,0.00
2023-03-27T02:38:01.861Z,0.00
2023-03-27T02:39:01.814Z,0.00
2023-03-27T02:40:01.807Z,0.00
2023-03-27T02:41:01.783Z,0.00
2023-03-27T02:42:01.782Z,0.00
2023-03-27T02:43:01.765Z,0.00
2023-03-27T02:44:01.819Z,0.00
2023-03-27T02:45:01.732Z,0.00
2023-03-27T02:46:01.805Z,0.00
2023-03-27T02:47:01.706Z,0.00
2023-03-27T02:48:01.785Z,0.00
2023-03-27T02:49:01.683Z,0.00
2023-03-27T02:50:01.694Z,0.00
2023-03-27T02:51:01.668Z,0.00
2023-03-27T02:52:01.651Z,0.00
2023-03-27T02:53:01.638Z,0.00
2023-03-27T02:54:01.661Z,0.00
2023-03-27T02:55:01.600Z,0.00
2023-03-27T02:56:01.691Z,0.00
2023-03-27T02:57:01.671Z,0.00
2023-03-27T02:58:01.570Z,0.00
2023-03-27T02:59:01.541Z,0.00
2023-03-27T03:00:01.561Z,0.00
2023-03-27T03:01:01.602Z,0.00
2023-03-27T03:02:01.576Z,0.00
2023-03-27T03:03:01.641Z,0.00
2023-03-27T03:04:01.535Z,0.00
2023-03-27T03:05:01.463Z,0.00
2023-03-27T03:06:01.481Z,0.00
2023-03-27T03:07:01.442Z,0.00
2023-03-27T03:08:01.467Z,0.00
2023-03-27T03:09:01.475Z,0.00
2023-03-27T03:10:01.469Z,0.00
2023-03-27T03:11:01.403Z,0.00
2023-03-27T03:12:01.397Z,0.00
2023-03-27T03:13:01.387Z,0.00
2023-03-27T03:14:01.371Z,0.00
2023-03-27T03:15:01.384Z,0.00
2023-03-27T03:16:01.374Z,0.00
2023-03-27T03:17:01.397Z,0.00
2023-03-27T03:18:01.336Z,0.00
2023-03-27T03:19:01.277Z,0.00
2023-03-27T03:20:01.332Z,0.00
2023-03-27T03:21:01.264Z,0.00
2023-03-27T03:22:01.255Z,0.00
2023-03-27T03:23:01.229Z,0.00
2023-03-27T03:24:01.341Z,0.00
2023-03-27T03:25:01.770Z,0.00
2023-03-27T03:26:01.230Z,0.00
2023-03-27T03:27:01.212Z,0.00
2023-03-27T03:28:01.206Z,0.00
2023-03-27T03:29:01.682Z,0.00
2023-03-27T03:30:01.214Z,0.00
2023-03-27T03:31:01.165Z,0.00
2023-03-27T03:32:01.130Z,0.00
2023-03-27T03:33:01.106Z,0.00
2023-03-27T03:34:01.104Z,0.00
2023-03-27T03:35:01.108Z,0.00
2023-03-27T03:36:01.115Z,0.00
2023-03-27T03:37:01.048Z,0.00
2023-03-27T03:38:01.076Z,0.00
2023-03-27T03:39:01.033Z,0.00
2023-03-27T03:40:01.023Z,0.00
2023-03-27T03:41:01.020Z,0.00
2023-03-27T03:42:01.034Z,0.00
2023-03-27T03:43:00.987Z,0.00
2023-03-27T03:44:01.017Z,0.00
2023-03-27T03:45:00.947Z,0.00
2023-03-27T03:46:00.985Z,0.00
2023-03-27T03:47:00.943Z,0.00
2023-03-27T03:48:00.982Z,0.00
2023-03-27T03:49:00.906Z,0.00
2023-03-27T03:50:00.903Z,0.00
2023-03-27T03:51:00.868Z,0.00
2023-03-27T03:52:03.656Z,0.00
2023-03-27T03:53:00.842Z,0.00
2023-03-27T03:54:00.866Z,0.00
2023-03-27T03:55:00.810Z,0.00
2023-03-27T03:56:00.823Z,0.00
2023-03-27T03:57:00.981Z,0.00
2023-03-27T03:58:00.796Z,0.00
2023-03-27T03:59:00.751Z,0.00
2023-03-27T04:00:00.760Z,0.00
2023-03-27T04:01:00.718Z,0.00
2023-03-27T04:02:00.784Z,0.00
2023-03-27T04:03:00.789Z,0.00
2023-03-27T04:04:00.755Z,0.00
2023-03-27T04:05:00.686Z,0.00
2023-03-27T04:06:00.693Z,0.00
2023-03-27T04:07:00.673Z,0.00
2023-03-27T04:08:00.669Z,0.00
2023-03-27T04:09:00.652Z,0.00
2023-03-27T04:10:00.637Z,0.00
2023-03-27T04:11:00.596Z,0.00
2023-03-27T04:12:00.604Z,0.00
2023-03-27T04:13:00.567Z,0.00
2023-03-27T04:14:00.606Z,0.00
2023-03-27T04:15:00.553Z,0.00
2023-03-27T04:16:00.616Z,0.00
2023-03-27T04:17:00.504Z,0.00
2023-03-27T04:18:00.655Z,0.00
2023-03-27T04:19:00.493Z,0.00
2023-03-27T04:20:00.546Z,0.00
2023-03-27T04:21:00.466Z,0.00
2023-03-27T04:22:00.476Z,0.00
2023-03-27T04:23:00.444Z,0.00
2023-03-27T04:24:00.468Z,0.00
2023-03-27T04:25:00.428Z,0.00
2023-03-27T04:26:00.468Z,0.00
2023-03-27T04:27:00.386Z,0.00
2023-03-27T04:28:00.393Z,0.00
2023-03-27T04:29:00.397Z,0.00
2023-03-27T04:30:00.812Z,0.00
2023-03-27T04:31:00.402Z,0.00
2023-03-27T04:32:00.361Z,0.00
2023-03-27T04:33:00.346Z,0.00
2023-03-27T04:34:00.333Z,0.00
2023-03-27T04:35:00.308Z,0.00
2023-03-27T04:36:06.504Z,0.00
2023-03-27T04:37:00.258Z,0.00
2023-03-27T04:38:00.300Z,0.00
2023-03-27T04:39:00.241Z,0.00
2023-03-27T04:40:00.257Z,0.00
2023-03-27T04:41:00.223Z,0.00
2023-03-27T04:42:00.233Z,0.00
2023-03-27T04:43:00.196Z,0.00
2023-03-27T04:44:00.206Z,0.00
2023-03-27T04:45:00.164Z,0.00
2023-03-27T04:46:00.182Z,0.00
2023-03-27T04:47:00.209Z,0.00
2023-03-27T04:48:00.301Z,0.00
2023-03-27T04:49:00.115Z,0.00
2023-03-27T04:50:00.255Z,0.00
2023-03-27T04:51:00.117Z,0.00
2023-03-27T04:52:00.147Z,0.00
2023-03-27T04:53:00.049Z,0.00
2023-03-27T04:54:00.088Z,0.00
2023-03-27T04:55:00.036Z,0.00
2023-03-27T04:56:00.046Z,0.00
2023-03-27T04:57:00.116Z,0.00
2023-03-27T04:58:00.034Z,0.00
2023-03-27T04:58:59.966Z,0.00
2023-03-27T04:59:59.987Z,0.00
2023-03-27T05:01:00.206Z,0.00
2023-03-27T05:02:00.032Z,0.00
2023-03-27T05:03:00.037Z,0.00
2023-03-27T05:03:59.986Z,0.00
2023-03-27T05:04:59.915Z,0.00
2023-03-27T05:05:59.907Z,0.00
2023-03-27T05:06:59.879Z,0.00
2023-03-27T05:07:59.917Z,0.00
2023-03-27T05:08:59.842Z,4.00
2023-03-27T05:09:59.852Z,0.00
2023-03-27T05:10:59.822Z,0.00
2023-03-27T05:11:59.816Z,0.00
2023-03-27T05:12:59.810Z,4.00
2023-03-27T05:13:59.830Z,4.00
2023-03-27T05:14:59.782Z,0.00
2023-03-27T05:15:59.825Z,4.00
2023-03-27T05:16:59.748Z,4.00
2023-03-27T05:17:59.795Z,4.00
2023-03-27T05:18:59.727Z,0.00
2023-03-27T05:19:59.723Z,4.00
2023-03-27T05:20:59.721Z,4.00
2023-03-27T05:21:59.711Z,4.00
2023-03-27T05:22:59.655Z,4.00
2023-03-27T05:23:59.673Z,8.00
2023-03-27T05:24:59.682Z,4.00
2023-03-27T05:26:00.896Z,4.00
2023-03-27T05:26:59.678Z,4.00
2023-03-27T05:27:59.630Z,8.00
2023-03-27T05:28:59.628Z,8.00
2023-03-27T05:29:59.579Z,12.00
2023-03-27T05:30:59.899Z,12.00
2023-03-27T05:32:01.291Z,12.00
2023-03-27T05:32:59.728Z,12.00
2023-03-27T05:33:59.504Z,16.00
2023-03-27T05:34:59.538Z,16.00
2023-03-27T05:35:59.537Z,16.00
2023-03-27T05:36:59.520Z,16.00
2023-03-27T05:37:59.465Z,16.00
2023-03-27T05:38:59.519Z,16.00
2023-03-27T05:39:59.478Z,20.00
2023-03-27T05:40:59.484Z,16.00
2023-03-27T05:41:59.423Z,20.00
2023-03-27T05:42:59.473Z,20.00
2023-03-27T05:43:59.383Z,20.00
2023-03-27T05:44:59.433Z,20.00
2023-03-27T05:45:59.387Z,24.00
2023-03-27T05:46:59.384Z,20.00
2023-03-27T05:47:59.413Z,20.00
2023-03-27T05:48:59.359Z,24.00
2023-03-27T05:49:59.341Z,24.00
2023-03-27T05:50:59.338Z,28.00
2023-03-27T05:51:59.321Z,28.00
2023-03-27T05:52:59.332Z,36.00
2023-03-27T05:53:59.314Z,40.00
2023-03-27T05:54:59.309Z,40.00
2023-03-27T05:56:03.151Z,48.00
2023-03-27T05:56:59.398Z,56.00
2023-03-27T05:57:59.215Z,56.00
2023-03-27T05:58:59.268Z,60.00
2023-03-27T05:59:59.205Z,56.00
2023-03-27T06:00:59.229Z,56.00
2023-03-27T06:01:59.165Z,56.00
2023-03-27T06:02:59.306Z,56.00
2023-03-27T06:03:59.279Z,52.00
2023-03-27T06:04:59.383Z,48.00
2023-03-27T06:05:59.115Z,40.00
2023-03-27T06:06:59.135Z,32.00
2023-03-27T06:07:59.127Z,36.00
2023-03-27T06:08:59.103Z,32.00
2023-03-27T06:09:59.084Z,40.00
2023-03-27T06:10:59.177Z,48.00
2023-03-27T06:11:59.103Z,52.00
2023-03-27T06:12:59.084Z,64.00
2023-03-27T06:13:59.004Z,68.00
2023-03-27T06:14:59.036Z,72.00
2023-03-27T06:15:59.253Z,80.00
2023-03-27T06:16:59.017Z,100.00
2023-03-27T06:17:58.996Z,104.00
2023-03-27T06:18:58.993Z,108.00
2023-03-27T06:19:58.949Z,112.00
2023-03-27T06:20:59.068Z,120.00
2023-03-27T06:21:58.897Z,120.00
2023-03-27T06:22:58.925Z,116.00
2023-03-27T06:23:58.898Z,116.00
2023-03-27T06:24:58.925Z,116.00
2023-03-27T06:25:59.061Z,120.00
2023-03-27T06:26:58.902Z,108.00
2023-03-27T06:27:58.841Z,108.00
2023-03-27T06:28:58.890Z,100.00
2023-03-27T06:29:58.822Z,96.00
2023-03-27T06:30:58.867Z,100.00
2023-03-27T06:31:58.802Z,100.00
2023-03-27T06:32:58.916Z,100.00
2023-03-27T06:33:58.757Z,104.00
2023-03-27T06:34:58.788Z,116.00
2023-03-27T06:35:59.198Z,112.00
2023-03-27T06:36:58.747Z,116.00
2023-03-27T06:37:58.702Z,124.00
2023-03-27T06:38:58.706Z,192.00
2023-03-27T06:39:58.672Z,160.00
2023-03-27T06:40:58.754Z,212.00
2023-03-27T06:41:58.652Z,200.00
2023-03-27T06:42:58.662Z,168.00
2023-03-27T06:43:58.609Z,176.00
2023-03-27T06:44:58.658Z,228.00
2023-03-27T06:45:58.731Z,244.00
2023-03-27T06:46:58.659Z,220.00
2023-03-27T06:48:12.191Z,260.00
2023-03-27T06:48:58.609Z,276.00
2023-03-27T06:49:58.547Z,220.00
2023-03-27T06:50:58.847Z,208.00
2023-03-27T06:51:58.549Z,204.00
2023-03-27T06:52:58.546Z,232.00
2023-03-27T06:53:58.498Z,236.00
2023-03-27T06:54:58.525Z,228.00
2023-03-27T06:55:58.774Z,328.00
2023-03-27T06:56:58.521Z,348.00
2023-03-27T06:57:58.434Z,376.00
2023-03-27T06:58:58.479Z,396.00
2023-03-27T07:00:00.862Z,424.00
2023-03-27T07:00:58.787Z,448.00
2023-03-27T07:01:58.437Z,464.00
2023-03-27T07:02:58.417Z,332.00
2023-03-27T07:03:58.379Z,256.00
2023-03-27T07:05:04.671Z,260.00
2023-03-27T07:05:58.510Z,280.00
2023-03-27T07:06:58.350Z,360.00
2023-03-27T07:08:01.108Z,376.00
2023-03-27T07:08:58.336Z,260.00
2023-03-27T07:09:58.265Z,244.00
2023-03-27T07:11:10.655Z,244.00
2023-03-27T07:11:58.273Z,356.00
2023-03-27T07:12:58.257Z,224.00
2023-03-27T07:13:58.232Z,260.00
2023-03-27T07:14:58.228Z,212.00
2023-03-27T07:15:58.213Z,412.00
2023-03-27T07:16:58.209Z,524.00
2023-03-27T07:17:58.224Z,296.00
2023-03-27T07:19:00.890Z,624.00
2023-03-27T07:19:58.156Z,708.00
2023-03-27T07:20:58.530Z,712.00
2023-03-27T07:21:58.103Z,744.00
2023-03-27T07:22:58.138Z,768.00
2023-03-27T07:23:58.137Z,788.00
2023-03-27T07:24:58.106Z,808.00
2023-03-27T07:25:58.356Z,832.00
2023-03-27T07:26:58.087Z,860.00
2023-03-27T07:27:58.049Z,888.00
2023-03-27T07:29:00.135Z,916.00
2023-03-27T07:29:58.029Z,940.00
2023-03-27T07:30:58.215Z,972.00
2023-03-27T07:32:01.571Z,1004.00
2023-03-27T07:32:58.085Z,1040.00
2023-03-27T07:33:58.168Z,1076.00
2023-03-27T07:34:57.967Z,1112.00
2023-03-27T07:35:58.106Z,1156.00
2023-03-27T07:36:57.966Z,1180.00
2023-03-27T07:37:57.913Z,1204.00
2023-03-27T07:38:57.944Z,1228.00
2023-03-27T07:39:57.890Z,1260.00
2023-03-27T07:40:57.890Z,1292.00
2023-03-27T07:41:57.898Z,1320.00
2023-03-27T07:42:57.875Z,1352.00
2023-03-27T07:43:57.883Z,1404.00
2023-03-27T07:44:57.835Z,1428.00
2023-03-27T07:45:58.087Z,1520.00
2023-03-27T07:46:57.814Z,872.00
2023-03-27T07:47:57.853Z,752.00
2023-03-27T07:48:57.831Z,856.00
2023-03-27T07:49:57.794Z,728.00
2023-03-27T07:51:03.615Z,1128.00
2023-03-27T07:51:57.722Z,1464.00
2023-03-27T07:52:57.758Z,1432.00
2023-03-27T07:53:57.738Z,1364.00
2023-03-27T07:54:57.740Z,1400.00
2023-03-27T07:55:57.887Z,1384.00
2023-03-27T07:56:57.722Z,1380.00
2023-03-27T07:58:02.241Z,1364.00
2023-03-27T07:58:57.672Z,1336.00
2023-03-27T07:59:57.627Z,1352.00
2023-03-27T08:00:57.644Z,1344.00
2023-03-27T08:01:57.635Z,1336.00
2023-03-27T08:02:57.705Z,1332.00
2023-03-27T08:03:57.661Z,1328.00
2023-03-27T08:04:57.709Z,1320.00
2023-03-27T08:05:57.922Z,1312.00
2023-03-27T08:06:57.595Z,1324.00
2023-03-27T08:07:57.526Z,1340.00
2023-03-27T08:08:57.528Z,1364.00
2023-03-27T08:09:57.510Z,1372.00
2023-03-27T08:10:57.502Z,504.00
2023-03-27T08:11:57.509Z,1048.00
2023-03-27T08:12:57.501Z,216.00
2023-03-27T08:13:57.454Z,288.00
2023-03-27T08:14:57.449Z,364.00
2023-03-27T08:15:57.622Z,1228.00
2023-03-27T08:17:08.676Z,1188.00
2023-03-27T08:17:57.429Z,548.00
2023-03-27T08:18:57.408Z,1264.00
2023-03-27T08:19:57.390Z,432.00
2023-03-27T08:20:57.410Z,960.00
2023-03-27T08:21:57.405Z,1364.00
2023-03-27T08:22:57.341Z,392.00
2023-03-27T08:23:57.931Z,1300.00
2023-03-27T08:24:57.336Z,1264.00
2023-03-27T08:25:57.396Z,292.00
2023-03-27T08:26:57.301Z,1280.00
2023-03-27T08:27:57.267Z,1292.00
2023-03-27T08:28:57.289Z,376.00
2023-03-27T08:29:57.268Z,1184.00
2023-03-27T08:31:02.946Z,1284.00
2023-03-27T08:31:57.193Z,724.00
2023-03-27T08:32:57.265Z,412.00
2023-03-27T08:33:57.214Z,1224.00
2023-03-27T08:34:57.180Z,1208.00
2023-03-27T08:35:57.318Z,1216.00
2023-03-27T08:36:57.189Z,1204.00
2023-03-27T08:37:57.126Z,1208.00
2023-03-27T08:38:57.137Z,1192.00
2023-03-27T08:39:57.081Z,1180.00
2023-03-27T08:40:57.099Z,1172.00
2023-03-27T08:41:57.102Z,1164.00
2023-03-27T08:42:57.133Z,1144.00
2023-03-27T08:43:57.045Z,1144.00
2023-03-27T08:44:57.055Z,1140.00
2023-03-27T08:45:57.199Z,1144.00
2023-03-27T08:46:57.048Z,1136.00
2023-03-27T08:47:57.001Z,1136.00
2023-03-27T08:48:57.009Z,1140.00
2023-03-27T08:49:56.979Z,1140.00
2023-03-27T08:50:57.038Z,1140.00
2023-03-27T08:51:56.988Z,1160.00
2023-03-27T08:52:56.945Z,368.00
2023-03-27T08:53:56.906Z,288.00
2023-03-27T08:54:56.928Z,300.00
2023-03-27T08:55:57.065Z,364.00
2023-03-27T08:56:56.993Z,780.00
2023-03-27T08:57:56.908Z,1232.00
2023-03-27T08:58:56.878Z,572.00
2023-03-27T08:59:56.834Z,1240.00
2023-03-27T09:00:56.892Z,340.00
2023-03-27T09:01:56.898Z,336.00
2023-03-27T09:02:56.916Z,1184.00
2023-03-27T09:03:56.904Z,368.00
2023-03-27T09:04:56.804Z,344.00
2023-03-27T09:05:56.905Z,548.00
2023-03-27T09:06:56.775Z,1196.00
2023-03-27T09:07:56.756Z,1200.00
2023-03-27T09:08:56.736Z,1116.00
2023-03-27T09:09:56.696Z,1184.00
2023-03-27T09:10:56.708Z,368.00
2023-03-27T09:11:56.689Z,336.00
2023-03-27T09:12:56.714Z,308.00
2023-03-27T09:13:56.645Z,324.00
2023-03-27T09:14:56.679Z,332.00
2023-03-27T09:15:56.871Z,344.00
2023-03-27T09:16:56.637Z,432.00
2023-03-27T09:17:56.660Z,296.00
2023-03-27T09:18:56.622Z,292.00
2023-03-27T09:19:56.572Z,444.00
2023-03-27T09:20:56.610Z,1084.00
2023-03-27T09:21:56.550Z,552.00
2023-03-27T09:22:56.562Z,980.00
2023-03-27T09:23:56.537Z,792.00
2023-03-27T09:24:56.532Z,372.00
2023-03-27T09:25:56.728Z,304.00
2023-03-27T09:27:06.794Z,304.00
2023-03-27T09:27:56.456Z,304.00
2023-03-27T09:28:56.503Z,300.00
2023-03-27T09:30:05.777Z,1048.00
2023-03-27T09:30:56.519Z,1004.00
2023-03-27T09:31:56.406Z,980.00
2023-03-27T09:32:56.519Z,968.00
2023-03-27T09:33:56.403Z,944.00
2023-03-27T09:34:56.390Z,940.00
2023-03-27T09:35:56.626Z,940.00
2023-03-27T09:36:56.366Z,980.00
2023-03-27T09:37:56.343Z,1004.00
2023-03-27T09:38:56.355Z,996.00
2023-03-27T09:39:56.324Z,984.00
2023-03-27T09:40:56.334Z,976.00
2023-03-27T09:41:56.280Z,980.00
2023-03-27T09:42:56.290Z,972.00
2023-03-27T09:43:56.255Z,968.00
2023-03-27T09:44:56.258Z,972.00
2023-03-27T09:45:56.402Z,984.00
2023-03-27T09:46:56.236Z,1004.00
2023-03-27T09:47:56.311Z,988.00
2023-03-27T09:48:56.196Z,972.00
2023-03-27T09:49:56.220Z,956.00
2023-03-27T09:50:56.287Z,928.00
2023-03-27T09:51:56.180Z,916.00
2023-03-27T09:52:56.146Z,912.00
2023-03-27T09:53:56.137Z,892.00
2023-03-27T09:54:56.298Z,884.00
2023-03-27T09:55:56.115Z,884.00
2023-03-27T09:56:56.146Z,804.00
2023-03-27T09:57:56.085Z,388.00
2023-03-27T09:58:56.096Z,316.00
2023-03-27T09:59:56.077Z,624.00
2023-03-27T10:00:56.224Z,372.00
2023-03-27T10:01:56.082Z,372.00
2023-03-27T10:02:56.079Z,380.00
2023-03-27T10:03:56.202Z,904.00
2023-03-27T10:04:55.977Z,904.00
2023-03-27T10:05:56.009Z,432.00
2023-03-27T10:06:55.944Z,564.00
2023-03-27T10:07:55.984Z,420.00
2023-03-27T10:08:55.950Z,388.00
2023-03-27T10:09:55.938Z,340.00
2023-03-27T10:10:56.071Z,304.00
2023-03-27T10:11:55.894Z,272.00
2023-03-27T10:12:55.906Z,260.00
2023-03-27T10:13:55.915Z,264.00
2023-03-27T10:14:55.858Z,256.00
2023-03-27T10:15:55.869Z,412.00
2023-03-27T10:16:55.881Z,224.00
2023-03-27T10:17:55.878Z,228.00
2023-03-27T10:18:55.804Z,232.00
2023-03-27T10:19:55.816Z,220.00
2023-03-27T10:20:55.907Z,268.00
2023-03-27T10:21:55.799Z,460.00
2023-03-27T10:22:55.754Z,560.00
2023-03-27T10:23:55.771Z,580.00
2023-03-27T10:24:55.709Z,592.00
2023-03-27T10:25:55.728Z,512.00
2023-03-27T10:26:55.700Z,548.00
2023-03-27T10:27:55.730Z,520.00
2023-03-27T10:28:55.667Z,512.00
2023-03-27T10:29:55.675Z,488.00
2023-03-27T10:30:55.799Z,468.00
2023-03-27T10:31:55.776Z,456.00
2023-03-27T10:32:55.664Z,444.00
2023-03-27T10:33:55.621Z,436.00
2023-03-27T10:34:55.598Z,428.00
2023-03-27T10:35:55.640Z,412.00
2023-03-27T10:36:55.570Z,400.00
2023-03-27T10:37:55.633Z,380.00
2023-03-27T10:38:55.512Z,368.00
2023-03-27T10:39:55.542Z,360.00
2023-03-27T10:40:55.689Z,356.00
2023-03-27T10:41:55.527Z,352.00
2023-03-27T10:42:55.533Z,352.00
2023-03-27T10:43:55.497Z,360.00
2023-03-27T10:44:55.446Z,324.00
2023-03-27T10:45:55.494Z,360.00
2023-03-27T10:46:55.452Z,356.00
2023-03-27T10:47:55.477Z,384.00
2023-03-27T10:48:55.387Z,432.00
2023-03-27T10:49:55.416Z,348.00
2023-03-27T10:50:55.482Z,340.00
2023-03-27T10:51:55.378Z,352.00
2023-03-27T10:52:55.450Z,348.00
2023-03-27T10:53:55.464Z,352.00
2023-03-27T10:54:55.311Z,360.00
2023-03-27T10:55:55.328Z,420.00
2023-03-27T10:56:55.339Z,448.00
2023-03-27T10:57:55.302Z,472.00
2023-03-27T10:58:55.249Z,472.00
2023-03-27T10:59:55.279Z,412.00
2023-03-27T11:00:55.370Z,392.00
2023-03-27T11:01:55.330Z,344.00
2023-03-27T11:02:55.247Z,308.00
2023-03-27T11:03:55.260Z,284.00
2023-03-27T11:04:55.194Z,260.00
2023-03-27T11:05:55.210Z,244.00
2023-03-27T11:06:55.171Z,232.00
2023-03-27T11:07:55.256Z,216.00
2023-03-27T11:08:55.131Z,204.00
2023-03-27T11:09:55.141Z,188.00
2023-03-27T11:10:55.193Z,176.00
2023-03-27T11:11:55.152Z,160.00
2023-03-27T11:12:55.070Z,148.00
2023-03-27T11:13:55.083Z,140.00
2023-03-27T11:14:55.034Z,132.00
2023-03-27T11:15:55.078Z,132.00
2023-03-27T11:16:55.080Z,132.00
2023-03-27T11:17:55.048Z,132.00
2023-03-27T11:18:55.012Z,140.00
2023-03-27T11:19:55.007Z,156.00
2023-03-27T11:20:55.058Z,172.00
2023-03-27T11:21:55.018Z,192.00
2023-03-27T11:22:54.945Z,220.00
2023-03-27T11:23:54.960Z,232.00
2023-03-27T11:24:54.907Z,236.00
2023-03-27T11:25:54.931Z,240.00
2023-03-27T11:26:54.961Z,256.00
2023-03-27T11:27:54.888Z,296.00
2023-03-27T11:28:54.867Z,348.00
2023-03-27T11:29:54.860Z,396.00
2023-03-27T11:30:54.962Z,392.00
2023-03-27T11:31:54.869Z,424.00
2023-03-27T11:32:54.871Z,392.00
2023-03-27T11:33:54.834Z,372.00
2023-03-27T11:34:54.797Z,360.00
2023-03-27T11:35:54.867Z,360.00
2023-03-27T11:36:54.796Z,356.00
2023-03-27T11:37:54.853Z,356.00
2023-03-27T11:38:54.739Z,332.00
2023-03-27T11:39:54.781Z,316.00
2023-03-27T11:40:54.933Z,336.00
2023-03-27T11:41:54.719Z,356.00
2023-03-27T11:42:54.694Z,340.00
2023-03-27T11:43:54.692Z,340.00
2023-03-27T11:44:54.643Z,352.00
2023-03-27T11:45:54.689Z,400.00
2023-03-27T11:46:54.629Z,356.00
2023-03-27T11:47:54.696Z,352.00
2023-03-27T11:48:54.604Z,332.00
2023-03-27T11:49:54.610Z,328.00
2023-03-27T11:50:54.826Z,344.00
2023-03-27T11:51:54.590Z,348.00
2023-03-27T11:52:54.572Z,324.00
2023-03-27T11:53:54.590Z,320.00
2023-03-27T11:54:54.560Z,324.00
2023-03-27T11:55:54.541Z,340.00
2023-03-27T11:56:54.671Z,356.00
2023-03-27T11:57:54.520Z,352.00
2023-03-27T11:58:54.490Z,396.00
2023-03-27T11:59:54.508Z,416.00
2023-03-27T12:00:54.749Z,432.00
2023-03-27T12:01:54.491Z,400.00
2023-03-27T12:02:54.454Z,388.00
2023-03-27T12:03:54.565Z,392.00
2023-03-27T12:04:54.394Z,412.00
2023-03-27T12:05:54.497Z,428.00
2023-03-27T12:06:54.357Z,396.00
2023-03-27T12:07:54.384Z,360.00
2023-03-27T12:08:54.374Z,332.00
2023-03-27T12:09:54.362Z,320.00
2023-03-27T12:10:54.500Z,308.00
2023-03-27T12:11:54.314Z,284.00
2023-03-27T12:12:54.308Z,272.00
2023-03-27T12:14:01.826Z,260.00
2023-03-27T12:14:54.299Z,252.00
2023-03-27T12:15:54.332Z,240.00
2023-03-27T12:16:54.338Z,224.00
2023-03-27T12:17:54.305Z,220.00
2023-03-27T12:19:04.015Z,208.00
2023-03-27T12:19:54.204Z,184.00
2023-03-27T12:20:54.196Z,156.00
2023-03-27T12:21:54.221Z,132.00
2023-03-27T12:22:54.151Z,108.00
2023-03-27T12:23:54.168Z,84.00
2023-03-27T12:24:59.720Z,72.00
2023-03-27T12:25:54.197Z,64.00
2023-03-27T12:26:54.147Z,76.00
2023-03-27T12:27:54.158Z,80.00
2023-03-27T12:28:54.087Z,76.00
2023-03-27T12:29:54.096Z,76.00
2023-03-27T12:30:54.085Z,72.00
2023-03-27T12:31:54.147Z,76.00
2023-03-27T12:32:55.391Z,72.00
2023-03-27T12:33:54.056Z,76.00
2023-03-27T12:34:53.991Z,76.00
2023-03-27T12:35:54.085Z,84.00
2023-03-27T12:36:53.972Z,92.00
2023-03-27T12:37:54.000Z,96.00
2023-03-27T12:38:53.927Z,100.00
2023-03-27T12:39:54.006Z,100.00
2023-03-27T12:40:53.960Z,96.00
2023-03-27T12:41:53.930Z,96.00
2023-03-27T12:42:53.940Z,100.00
2023-03-27T12:43:53.918Z,96.00
2023-03-27T12:44:53.876Z,84.00
2023-03-27T12:45:53.912Z,76.00
2023-03-27T12:46:53.909Z,72.00
2023-03-27T12:47:53.938Z,68.00